sensor_id;sensor_type;location;lat;lon;timestamp;P1;durP1;ratioP1;P2;durP2;ratioP2
9938;SDS011;5008;50.656;7.188;2023-04-07T04:01:38;19.47;;;14.73;;
9938;SDS011;5008;50.656;7.188;2023-04-07T04:04:05;18.83;;;14.53;;
9938;SDS011;5008;50.656;7.188;2023-04-07T04:06:32;21.17;;;15.10;;
9938;SDS011;5008;50.656;7.188;2023-04-07T04:08:58;18.60;;;14.67;;
9938;SDS011;5008;50.656;7.188;2023-04-07T04:11:25;19.13;;;14.57;;
9938;SDS011;5008;50.656;7.188;2023-04-07T04:13:52;18.83;;;14.10;;
9938;SDS011;5008;50.656;7.188;2023-04-07T04:16:19;18.90;;;14.80;;
9938;SDS011;5008;50.656;7.188;2023-04-07T04:18:47;18.80;;;14.77;;
9938;SDS011;5008;50.656;7.188;2023-04-07T04:21:14;18.87;;;14.90;;
9938;SDS011;5008;50.656;7.188;2023-04-07T04:23:41;20.43;;;14.50;;
9938;SDS011;5008;50.656;7.188;2023-04-07T04:26:07;20.07;;;15.00;;
9938;SDS011;5008;50.656;7.188;2023-04-07T04:28:34;18.60;;;14.87;;
9938;SDS011;5008;50.656;7.188;2023-04-07T04:31:01;19.37;;;14.67;;
9938;SDS011;5008;50.656;7.188;2023-04-07T04:33:37;23.17;;;16.13;;
9938;SDS011;5008;50.656;7.188;2023-04-07T04:36:17;22.00;;;15.83;;
9938;SDS011;5008;50.656;7.188;2023-04-07T04:38:44;16.40;;;14.37;;
9938;SDS011;5008;50.656;7.188;2023-04-07T04:41:11;19.53;;;14.73;;
9938;SDS011;5008;50.656;7.188;2023-04-07T04:43:40;20.47;;;15.53;;
9938;SDS011;5008;50.656;7.188;2023-04-07T04:46:06;20.63;;;15.10;;
9938;SDS011;5008;50.656;7.188;2023-04-07T04:48:33;18.70;;;15.27;;
9938;SDS011;5008;50.656;7.188;2023-04-07T04:51:00;19.43;;;14.77;;
9938;SDS011;5008;50.656;7.188;2023-04-07T04:53:28;19.77;;;15.33;;
9938;SDS011;5008;50.656;7.188;2023-04-07T04:55:55;17.10;;;14.83;;
9938;SDS011;5008;50.656;7.188;2023-04-07T04:58:26;20.53;;;15.77;;
9938;SDS011;5008;50.656;7.188;2023-04-07T05:00:53;20.20;;;16.13;;
9938;SDS011;5008;50.656;7.188;2023-04-07T05:03:22;21.30;;;16.23;;
9938;SDS011;5008;50.656;7.188;2023-04-07T05:05:50;21.80;;;16.37;;
9938;SDS011;5008;50.656;7.188;2023-04-07T05:08:16;19.53;;;16.53;;
9938;SDS011;5008;50.656;7.188;2023-04-07T05:10:45;22.03;;;17.93;;
9938;SDS011;5008;50.656;7.188;2023-04-07T05:13:15;23.40;;;17.13;;
9938;SDS011;5008;50.656;7.188;2023-04-07T05:15:41;24.07;;;18.07;;
9938;SDS011;5008;50.656;7.188;2023-04-07T05:18:08;22.67;;;16.43;;
9938;SDS011;5008;50.656;7.188;2023-04-07T05:20:35;22.20;;;17.20;;
9938;SDS011;5008;50.656;7.188;2023-04-07T05:23:02;24.27;;;17.73;;
9938;SDS011;5008;50.656;7.188;2023-04-07T05:25:33;22.83;;;17.67;;
9938;SDS011;5008;50.656;7.188;2023-04-07T05:28:02;24.17;;;18.00;;
9938;SDS011;5008;50.656;7.188;2023-04-07T05:30:29;23.17;;;17.73;;
9938;SDS011;5008;50.656;7.188;2023-04-07T05:32:56;25.10;;;18.13;;
9938;SDS011;5008;50.656;7.188;2023-04-07T05:35:22;24.13;;;18.70;;
9938;SDS011;5008;50.656;7.188;2023-04-07T05:37:50;23.63;;;18.10;;
9938;SDS011;5008;50.656;7.188;2023-04-07T05:40:17;25.30;;;18.50;;
9938;SDS011;5008;50.656;7.188;2023-04-07T05:42:45;25.00;;;18.20;;
9938;SDS011;5008;50.656;7.188;2023-04-07T05:45:14;21.97;;;18.57;;
9938;SDS011;5008;50.656;7.188;2023-04-07T05:47:41;24.43;;;18.30;;
9938;SDS011;5008;50.656;7.188;2023-04-07T05:50:10;26.27;;;19.53;;
9938;SDS011;5008;50.656;7.188;2023-04-07T05:52:38;25.40;;;19.70;;
9938;SDS011;5008;50.656;7.188;2023-04-07T05:55:05;25.53;;;18.87;;
9938;SDS011;5008;50.656;7.188;2023-04-07T05:57:32;23.23;;;18.80;;
9938;SDS011;5008;50.656;7.188;2023-04-07T05:59:59;26.40;;;18.33;;
9938;SDS011;5008;50.656;7.188;2023-04-07T06:02:27;25.40;;;19.47;;
9938;SDS011;5008;50.656;7.188;2023-04-07T06:04:54;24.70;;;17.90;;
9938;SDS011;5008;50.656;7.188;2023-04-07T06:07:21;27.30;;;19.37;;
9938;SDS011;5008;50.656;7.188;2023-04-07T06:09:49;24.13;;;18.90;;
9938;SDS011;5008;50.656;7.188;2023-04-07T06:12:16;22.80;;;18.73;;
9938;SDS011;5008;50.656;7.188;2023-04-07T06:14:45;22.93;;;18.37;;
9938;SDS011;5008;50.656;7.188;2023-04-07T06:17:16;26.33;;;18.53;;
9938;SDS011;5008;50.656;7.188;2023-04-07T06:19:44;21.97;;;17.53;;
9938;SDS011;5008;50.656;7.188;2023-04-07T06:22:11;26.30;;;19.03;;
9938;SDS011;5008;50.656;7.188;2023-04-07T06:24:38;25.77;;;18.10;;
9938;SDS011;5008;50.656;7.188;2023-04-07T06:27:05;22.83;;;17.30;;
9938;SDS011;5008;50.656;7.188;2023-04-07T06:29:32;24.53;;;18.20;;
9938;SDS011;5008;50.656;7.188;2023-04-07T06:32:13;25.43;;;19.20;;
9938;SDS011;5008;50.656;7.188;2023-04-07T06:34:41;25.63;;;18.20;;
9938;SDS011;5008;50.656;7.188;2023-04-07T06:37:09;24.03;;;17.53;;
9938;SDS011;5008;50.656;7.188;2023-04-07T06:39:37;24.77;;;17.30;;
9938;SDS011;5008;50.656;7.188;2023-04-07T06:42:04;24.27;;;17.70;;
9938;SDS011;5008;50.656;7.188;2023-04-07T06:44:31;23.77;;;17.33;;
9938;SDS011;5008;50.656;7.188;2023-04-07T06:46:58;25.27;;;18.10;;
9938;SDS011;5008;50.656;7.188;2023-04-07T06:49:25;23.43;;;17.50;;
9938;SDS011;5008;50.656;7.188;2023-04-07T06:51:51;23.47;;;17.50;;
9938;SDS011;5008;50.656;7.188;2023-04-07T06:54:19;24.50;;;16.97;;
9938;SDS011;5008;50.656;7.188;2023-04-07T06:56:46;21.27;;;15.87;;
9938;SDS011;5008;50.656;7.188;2023-04-07T06:59:13;23.17;;;17.17;;
9938;SDS011;5008;50.656;7.188;2023-04-07T07:01:40;21.17;;;16.47;;
9938;SDS011;5008;50.656;7.188;2023-04-07T07:04:07;22.40;;;16.37;;
9938;SDS011;5008;50.656;7.188;2023-04-07T07:06:34;21.07;;;16.47;;
9938;SDS011;5008;50.656;7.188;2023-04-07T07:09:01;21.73;;;16.53;;
9938;SDS011;5008;50.656;7.188;2023-04-07T07:11:31;20.93;;;15.30;;
9938;SDS011;5008;50.656;7.188;2023-04-07T07:13:58;20.37;;;15.97;;
9938;SDS011;5008;50.656;7.188;2023-04-07T07:16:25;19.27;;;15.23;;
9938;SDS011;5008;50.656;7.188;2023-04-07T07:18:53;19.80;;;15.60;;
9938;SDS011;5008;50.656;7.188;2023-04-07T07:21:20;21.50;;;16.17;;
9938;SDS011;5008;50.656;7.188;2023-04-07T07:23:46;17.97;;;14.83;;
9938;SDS011;5008;50.656;7.188;2023-04-07T07:26:19;20.47;;;14.73;;
9938;SDS011;5008;50.656;7.188;2023-04-07T07:28:47;19.77;;;14.70;;
9938;SDS011;5008;50.656;7.188;2023-04-07T07:31:14;19.50;;;14.60;;
9938;SDS011;5008;50.656;7.188;2023-04-07T07:33:41;22.00;;;14.50;;
9938;SDS011;5008;50.656;7.188;2023-04-07T07:36:11;19.90;;;14.67;;
9938;SDS011;5008;50.656;7.188;2023-04-07T07:38:38;16.47;;;13.53;;
9938;SDS011;5008;50.656;7.188;2023-04-07T07:41:05;18.90;;;14.50;;
9938;SDS011;5008;50.656;7.188;2023-04-07T07:43:33;18.03;;;14.00;;
9938;SDS011;5008;50.656;7.188;2023-04-07T07:46:09;20.13;;;14.10;;
9938;SDS011;5008;50.656;7.188;2023-04-07T07:48:36;16.47;;;12.93;;
9938;SDS011;5008;50.656;7.188;2023-04-07T07:51:03;17.47;;;13.67;;
9938;SDS011;5008;50.656;7.188;2023-04-07T07:53:36;17.67;;;13.83;;
9938;SDS011;5008;50.656;7.188;2023-04-07T07:56:02;17.03;;;12.83;;
9938;SDS011;5008;50.656;7.188;2023-04-07T07:58:29;17.07;;;12.80;;
9938;SDS011;5008;50.656;7.188;2023-04-07T08:00:56;17.57;;;12.87;;
9938;SDS011;5008;50.656;7.188;2023-04-07T08:03:24;14.30;;;12.00;;
9938;SDS011;5008;50.656;7.188;2023-04-07T08:05:51;16.67;;;12.50;;
9938;SDS011;5008;50.656;7.188;2023-04-07T08:08:18;17.20;;;12.50;;
9938;SDS011;5008;50.656;7.188;2023-04-07T08:10:45;15.10;;;11.67;;
9938;SDS011;5008;50.656;7.188;2023-04-07T08:13:12;15.67;;;12.27;;
9938;SDS011;5008;50.656;7.188;2023-04-07T08:15:40;16.13;;;12.10;;
9938;SDS011;5008;50.656;7.188;2023-04-07T08:18:06;15.30;;;11.27;;
9938;SDS011;5008;50.656;7.188;2023-04-07T08:20:35;13.93;;;11.37;;
9938;SDS011;5008;50.656;7.188;2023-04-07T08:23:02;15.17;;;11.73;;
9938;SDS011;5008;50.656;7.188;2023-04-07T08:25:29;12.87;;;11.03;;
9938;SDS011;5008;50.656;7.188;2023-04-07T08:27:56;14.27;;;11.43;;
9938;SDS011;5008;50.656;7.188;2023-04-07T08:30:43;14.07;;;10.30;;
9938;SDS011;5008;50.656;7.188;2023-04-07T08:33:14;13.43;;;9.80;;
9938;SDS011;5008;50.656;7.188;2023-04-07T08:35:42;13.67;;;10.50;;
9938;SDS011;5008;50.656;7.188;2023-04-07T08:38:08;11.63;;;8.67;;
9938;SDS011;5008;50.656;7.188;2023-04-07T08:40:35;11.97;;;8.47;;
9938;SDS011;5008;50.656;7.188;2023-04-07T08:43:02;12.87;;;8.67;;
9938;SDS011;5008;50.656;7.188;2023-04-07T08:45:33;10.60;;;8.20;;
9938;SDS011;5008;50.656;7.188;2023-04-07T08:48:04;11.03;;;8.73;;
9938;SDS011;5008;50.656;7.188;2023-04-07T08:50:37;11.27;;;8.97;;
9938;SDS011;5008;50.656;7.188;2023-04-07T08:53:07;12.90;;;8.67;;
9938;SDS011;5008;50.656;7.188;2023-04-07T08:55:37;12.00;;;8.80;;
9938;SDS011;5008;50.656;7.188;2023-04-07T08:58:03;12.80;;;8.63;;
9938;SDS011;5008;50.656;7.188;2023-04-07T09:00:32;12.40;;;9.20;;
9938;SDS011;5008;50.656;7.188;2023-04-07T09:02:59;10.77;;;7.57;;
9938;SDS011;5008;50.656;7.188;2023-04-07T09:05:27;11.57;;;7.97;;
9938;SDS011;5008;50.656;7.188;2023-04-07T09:07:55;9.60;;;7.40;;
9938;SDS011;5008;50.656;7.188;2023-04-07T09:10:23;10.07;;;7.17;;
9938;SDS011;5008;50.656;7.188;2023-04-07T09:12:50;9.17;;;6.73;;
9938;SDS011;5008;50.656;7.188;2023-04-07T09:15:17;8.20;;;6.37;;
9938;SDS011;5008;50.656;7.188;2023-04-07T09:17:45;7.57;;;6.00;;
9938;SDS011;5008;50.656;7.188;2023-04-07T09:20:12;6.77;;;6.07;;
9938;SDS011;5008;50.656;7.188;2023-04-07T09:22:40;7.63;;;5.73;;
9938;SDS011;5008;50.656;7.188;2023-04-07T09:25:11;7.60;;;6.13;;
9938;SDS011;5008;50.656;7.188;2023-04-07T09:27:41;7.23;;;5.20;;
9938;SDS011;5008;50.656;7.188;2023-04-07T09:30:20;6.83;;;5.03;;
9938;SDS011;5008;50.656;7.188;2023-04-07T09:32:47;8.03;;;5.33;;
9938;SDS011;5008;50.656;7.188;2023-04-07T09:35:14;8.77;;;5.13;;
9938;SDS011;5008;50.656;7.188;2023-04-07T09:37:41;8.20;;;5.30;;
9938;SDS011;5008;50.656;7.188;2023-04-07T09:40:09;6.70;;;5.07;;
9938;SDS011;5008;50.656;7.188;2023-04-07T09:42:44;7.43;;;5.60;;
9938;SDS011;5008;50.656;7.188;2023-04-07T09:45:12;7.40;;;5.57;;
9938;SDS011;5008;50.656;7.188;2023-04-07T09:47:49;7.30;;;5.60;;
9938;SDS011;5008;50.656;7.188;2023-04-07T09:50:19;7.73;;;5.53;;
9938;SDS011;5008;50.656;7.188;2023-04-07T09:52:57;7.03;;;5.33;;
9938;SDS011;5008;50.656;7.188;2023-04-07T09:55:23;7.67;;;5.77;;
9938;SDS011;5008;50.656;7.188;2023-04-07T09:57:52;9.47;;;6.10;;
9938;SDS011;5008;50.656;7.188;2023-04-07T10:00:20;8.67;;;6.13;;
9938;SDS011;5008;50.656;7.188;2023-04-07T10:02:47;9.53;;;6.50;;
9938;SDS011;5008;50.656;7.188;2023-04-07T10:05:15;7.97;;;5.87;;
9938;SDS011;5008;50.656;7.188;2023-04-07T10:07:45;8.20;;;6.20;;
9938;SDS011;5008;50.656;7.188;2023-04-07T10:10:12;8.00;;;6.10;;
9938;SDS011;5008;50.656;7.188;2023-04-07T10:12:39;6.83;;;5.80;;
9938;SDS011;5008;50.656;7.188;2023-04-07T10:15:09;9.57;;;6.97;;
9938;SDS011;5008;50.656;7.188;2023-04-07T10:17:37;9.37;;;6.80;;
9938;SDS011;5008;50.656;7.188;2023-04-07T10:20:06;11.50;;;6.60;;
9938;SDS011;5008;50.656;7.188;2023-04-07T10:22:36;10.40;;;7.07;;
9938;SDS011;5008;50.656;7.188;2023-04-07T10:25:04;11.00;;;7.90;;
9938;SDS011;5008;50.656;7.188;2023-04-07T10:27:37;12.17;;;7.60;;
9938;SDS011;5008;50.656;7.188;2023-04-07T10:30:17;10.67;;;7.63;;
9938;SDS011;5008;50.656;7.188;2023-04-07T10:32:49;9.77;;;7.57;;
9938;SDS011;5008;50.656;7.188;2023-04-07T10:35:18;10.73;;;7.37;;
9938;SDS011;5008;50.656;7.188;2023-04-07T10:40:36;9.53;;;6.83;;
9938;SDS011;5008;50.656;7.188;2023-04-07T10:43:10;10.57;;;7.50;;
9938;SDS011;5008;50.656;7.188;2023-04-07T10:45:54;9.90;;;7.10;;
9938;SDS011;5008;50.656;7.188;2023-04-07T10:48:23;9.00;;;6.40;;
9938;SDS011;5008;50.656;7.188;2023-04-07T10:59:39;10.40;;;7.80;;
9938;SDS011;5008;50.656;7.188;2023-04-07T11:04:58;8.50;;;6.63;;
9938;SDS011;5008;50.656;7.188;2023-04-07T11:07:42;10.80;;;7.70;;
9938;SDS011;5008;50.656;7.188;2023-04-07T11:12:58;11.50;;;8.10;;
9938;SDS011;5008;50.656;7.188;2023-04-07T11:15:26;9.03;;;7.23;;
9938;SDS011;5008;50.656;7.188;2023-04-07T11:20:51;8.90;;;7.60;;
9938;SDS011;5008;50.656;7.188;2023-04-07T11:23:26;10.40;;;7.53;;
9938;SDS011;5008;50.656;7.188;2023-04-07T11:25:58;9.23;;;7.73;;
9938;SDS011;5008;50.656;7.188;2023-04-07T11:28:26;9.13;;;7.40;;
9938;SDS011;5008;50.656;7.188;2023-04-07T11:30:54;9.17;;;7.23;;
9938;SDS011;5008;50.656;7.188;2023-04-07T11:33:27;10.03;;;6.83;;
9938;SDS011;5008;50.656;7.188;2023-04-07T11:35:56;7.23;;;6.37;;
9938;SDS011;5008;50.656;7.188;2023-04-07T11:38:25;7.10;;;6.40;;
9938;SDS011;5008;50.656;7.188;2023-04-07T11:40:53;9.10;;;7.10;;
9938;SDS011;5008;50.656;7.188;2023-04-07T11:43:22;8.50;;;7.57;;
9938;SDS011;5008;50.656;7.188;2023-04-07T11:46:04;11.13;;;7.53;;
9938;SDS011;5008;50.656;7.188;2023-04-07T11:48:34;7.60;;;6.23;;
9938;SDS011;5008;50.656;7.188;2023-04-07T11:51:04;8.87;;;6.83;;
9938;SDS011;5008;50.656;7.188;2023-04-07T11:53:34;9.03;;;6.57;;
9938;SDS011;5008;50.656;7.188;2023-04-07T11:56:06;7.67;;;6.63;;
9938;SDS011;5008;50.656;7.188;2023-04-07T11:58:36;8.03;;;6.50;;
9938;SDS011;5008;50.656;7.188;2023-04-07T12:01:06;8.40;;;6.60;;
9938;SDS011;5008;50.656;7.188;2023-04-07T12:03:35;9.77;;;7.33;;
9938;SDS011;5008;50.656;7.188;2023-04-07T12:06:25;9.80;;;7.53;;
9938;SDS011;5008;50.656;7.188;2023-04-07T12:08:56;8.20;;;7.30;;
9938;SDS011;5008;50.656;7.188;2023-04-07T12:11:27;10.10;;;7.37;;
9938;SDS011;5008;50.656;7.188;2023-04-07T12:13:54;8.43;;;6.70;;
9938;SDS011;5008;50.656;7.188;2023-04-07T12:16:21;7.67;;;6.87;;
9938;SDS011;5008;50.656;7.188;2023-04-07T12:18:50;11.03;;;7.30;;
9938;SDS011;5008;50.656;7.188;2023-04-07T12:21:17;9.10;;;7.17;;
9938;SDS011;5008;50.656;7.188;2023-04-07T12:23:44;8.87;;;7.57;;
9938;SDS011;5008;50.656;7.188;2023-04-07T12:26:11;8.27;;;7.20;;
9938;SDS011;5008;50.656;7.188;2023-04-07T12:28:38;8.57;;;7.47;;
9938;SDS011;5008;50.656;7.188;2023-04-07T12:31:05;9.03;;;7.80;;
9938;SDS011;5008;50.656;7.188;2023-04-07T12:33:32;9.83;;;7.13;;
9938;SDS011;5008;50.656;7.188;2023-04-07T12:36:00;9.37;;;7.17;;
9938;SDS011;5008;50.656;7.188;2023-04-07T12:38:27;10.17;;;8.10;;
9938;SDS011;5008;50.656;7.188;2023-04-07T12:40:54;10.43;;;8.33;;
9938;SDS011;5008;50.656;7.188;2023-04-07T12:43:27;9.93;;;8.53;;
9938;SDS011;5008;50.656;7.188;2023-04-07T12:45:54;11.27;;;8.53;;
9938;SDS011;5008;50.656;7.188;2023-04-07T12:48:21;11.33;;;8.73;;
9938;SDS011;5008;50.656;7.188;2023-04-07T12:50:48;11.73;;;8.90;;
9938;SDS011;5008;50.656;7.188;2023-04-07T12:53:17;11.93;;;9.90;;
9938;SDS011;5008;50.656;7.188;2023-04-07T12:55:44;12.17;;;10.07;;
9938;SDS011;5008;50.656;7.188;2023-04-07T12:58:12;11.23;;;9.40;;
9938;SDS011;5008;50.656;7.188;2023-04-07T13:00:39;11.50;;;10.07;;
9938;SDS011;5008;50.656;7.188;2023-04-07T13:03:06;11.73;;;9.53;;
9938;SDS011;5008;50.656;7.188;2023-04-07T13:05:33;11.70;;;9.27;;
9938;SDS011;5008;50.656;7.188;2023-04-07T13:08:00;11.23;;;10.03;;
9938;SDS011;5008;50.656;7.188;2023-04-07T13:10:28;12.27;;;10.93;;
9938;SDS011;5008;50.656;7.188;2023-04-07T13:12:55;12.50;;;10.27;;
9938;SDS011;5008;50.656;7.188;2023-04-07T13:15:22;12.43;;;10.00;;
9938;SDS011;5008;50.656;7.188;2023-04-07T13:17:49;12.70;;;10.23;;
9938;SDS011;5008;50.656;7.188;2023-04-07T13:20:16;13.83;;;10.57;;
9938;SDS011;5008;50.656;7.188;2023-04-07T13:22:43;11.17;;;9.70;;
9938;SDS011;5008;50.656;7.188;2023-04-07T13:25:10;11.73;;;9.30;;
9938;SDS011;5008;50.656;7.188;2023-04-07T13:27:38;9.73;;;8.73;;
9938;SDS011;5008;50.656;7.188;2023-04-07T13:30:05;11.30;;;9.30;;
9938;SDS011;5008;50.656;7.188;2023-04-07T13:32:33;10.93;;;8.90;;
9938;SDS011;5008;50.656;7.188;2023-04-07T13:34:59;11.33;;;10.13;;
9938;SDS011;5008;50.656;7.188;2023-04-07T13:37:26;11.37;;;9.57;;
9938;SDS011;5008;50.656;7.188;2023-04-07T13:39:53;11.37;;;9.60;;
9938;SDS011;5008;50.656;7.188;2023-04-07T13:42:20;12.37;;;9.67;;
9938;SDS011;5008;50.656;7.188;2023-04-07T13:44:48;10.43;;;9.27;;
9938;SDS011;5008;50.656;7.188;2023-04-07T13:47:15;11.43;;;8.73;;
9938;SDS011;5008;50.656;7.188;2023-04-07T13:49:44;10.83;;;9.57;;
9938;SDS011;5008;50.656;7.188;2023-04-07T13:52:12;12.47;;;9.47;;
9938;SDS011;5008;50.656;7.188;2023-04-07T13:54:46;11.53;;;9.53;;
9938;SDS011;5008;50.656;7.188;2023-04-07T13:57:13;14.63;;;9.87;;
9938;SDS011;5008;50.656;7.188;2023-04-07T13:59:44;11.77;;;9.93;;
9938;SDS011;5008;50.656;7.188;2023-04-07T14:02:13;13.37;;;10.30;;
9938;SDS011;5008;50.656;7.188;2023-04-07T14:04:40;10.93;;;9.10;;
9938;SDS011;5008;50.656;7.188;2023-04-07T14:07:07;10.93;;;9.70;;
9938;SDS011;5008;50.656;7.188;2023-04-07T14:09:34;11.30;;;8.73;;
9938;SDS011;5008;50.656;7.188;2023-04-07T14:12:01;10.00;;;8.30;;
9938;SDS011;5008;50.656;7.188;2023-04-07T14:14:29;9.40;;;8.37;;
9938;SDS011;5008;50.656;7.188;2023-04-07T14:16:56;11.03;;;7.73;;
9938;SDS011;5008;50.656;7.188;2023-04-07T14:19:24;9.60;;;7.93;;
9938;SDS011;5008;50.656;7.188;2023-04-07T14:21:51;9.07;;;8.17;;
9938;SDS011;5008;50.656;7.188;2023-04-07T14:24:18;10.63;;;8.83;;
9938;SDS011;5008;50.656;7.188;2023-04-07T14:26:45;9.70;;;8.70;;
9938;SDS011;5008;50.656;7.188;2023-04-07T14:29:15;11.20;;;9.63;;
9938;SDS011;5008;50.656;7.188;2023-04-07T14:31:42;10.60;;;9.03;;
9938;SDS011;5008;50.656;7.188;2023-04-07T14:34:12;10.90;;;9.20;;
9938;SDS011;5008;50.656;7.188;2023-04-07T14:36:40;9.77;;;8.77;;
9938;SDS011;5008;50.656;7.188;2023-04-07T14:39:08;11.17;;;9.97;;
9938;SDS011;5008;50.656;7.188;2023-04-07T14:41:36;13.27;;;11.07;;
9938;SDS011;5008;50.656;7.188;2023-04-07T14:44:03;14.60;;;11.97;;
9938;SDS011;5008;50.656;7.188;2023-04-07T14:46:30;13.87;;;11.50;;
9938;SDS011;5008;50.656;7.188;2023-04-07T14:48:57;13.40;;;12.00;;
9938;SDS011;5008;50.656;7.188;2023-04-07T14:51:24;14.27;;;11.40;;
9938;SDS011;5008;50.656;7.188;2023-04-07T14:53:52;12.57;;;11.27;;
9938;SDS011;5008;50.656;7.188;2023-04-07T14:56:21;13.13;;;11.53;;
9938;SDS011;5008;50.656;7.188;2023-04-07T14:58:48;13.43;;;11.10;;
9938;SDS011;5008;50.656;7.188;2023-04-07T15:01:15;11.97;;;10.27;;
9938;SDS011;5008;50.656;7.188;2023-04-07T15:03:42;13.20;;;10.43;;
9938;SDS011;5008;50.656;7.188;2023-04-07T15:06:11;14.50;;;11.17;;
9938;SDS011;5008;50.656;7.188;2023-04-07T15:08:39;13.47;;;10.97;;
9938;SDS011;5008;50.656;7.188;2023-04-07T15:11:07;15.83;;;11.67;;
9938;SDS011;5008;50.656;7.188;2023-04-07T15:13:35;13.57;;;11.83;;
9938;SDS011;5008;50.656;7.188;2023-04-07T15:16:05;13.80;;;11.43;;
9938;SDS011;5008;50.656;7.188;2023-04-07T15:18:32;14.97;;;11.93;;
9938;SDS011;5008;50.656;7.188;2023-04-07T15:20:59;12.73;;;11.43;;
9938;SDS011;5008;50.656;7.188;2023-04-07T15:23:26;14.03;;;10.67;;
9938;SDS011;5008;50.656;7.188;2023-04-07T15:25:53;11.87;;;10.20;;
9938;SDS011;5008;50.656;7.188;2023-04-07T15:28:22;13.17;;;10.47;;
9938;SDS011;5008;50.656;7.188;2023-04-07T15:30:49;11.77;;;10.57;;
9938;SDS011;5008;50.656;7.188;2023-04-07T15:33:17;12.97;;;11.07;;
9938;SDS011;5008;50.656;7.188;2023-04-07T15:35:44;13.13;;;11.33;;
9938;SDS011;5008;50.656;7.188;2023-04-07T15:38:10;13.50;;;11.60;;
9938;SDS011;5008;50.656;7.188;2023-04-07T15:40:37;13.13;;;11.53;;
9938;SDS011;5008;50.656;7.188;2023-04-07T15:43:05;14.63;;;11.03;;
9938;SDS011;5008;50.656;7.188;2023-04-07T15:45:35;13.77;;;11.43;;
9938;SDS011;5008;50.656;7.188;2023-04-07T15:48:06;13.40;;;11.30;;
9938;SDS011;5008;50.656;7.188;2023-04-07T15:50:33;12.50;;;10.87;;
9938;SDS011;5008;50.656;7.188;2023-04-07T15:53:00;14.53;;;11.47;;
9938;SDS011;5008;50.656;7.188;2023-04-07T15:55:28;12.57;;;11.27;;
9938;SDS011;5008;50.656;7.188;2023-04-07T15:57:55;14.60;;;11.73;;
9938;SDS011;5008;50.656;7.188;2023-04-07T16:00:30;12.37;;;11.07;;
9938;SDS011;5008;50.656;7.188;2023-04-07T16:03:00;13.20;;;11.17;;
9938;SDS011;5008;50.656;7.188;2023-04-07T16:05:27;13.20;;;11.80;;
9938;SDS011;5008;50.656;7.188;2023-04-07T16:07:54;13.13;;;11.00;;
9938;SDS011;5008;50.656;7.188;2023-04-07T16:10:21;13.20;;;10.33;;
9938;SDS011;5008;50.656;7.188;2023-04-07T16:12:47;11.83;;;10.63;;
9938;SDS011;5008;50.656;7.188;2023-04-07T16:15:14;13.30;;;11.03;;
9938;SDS011;5008;50.656;7.188;2023-04-07T16:17:42;13.87;;;11.13;;
9938;SDS011;5008;50.656;7.188;2023-04-07T16:20:12;13.00;;;10.87;;
9938;SDS011;5008;50.656;7.188;2023-04-07T16:22:39;13.97;;;11.23;;
9938;SDS011;5008;50.656;7.188;2023-04-07T16:25:08;12.93;;;11.60;;
9938;SDS011;5008;50.656;7.188;2023-04-07T16:27:35;13.73;;;10.90;;
9938;SDS011;5008;50.656;7.188;2023-04-07T16:30:02;12.77;;;10.63;;
9938;SDS011;5008;50.656;7.188;2023-04-07T16:32:30;11.60;;;10.40;;
9938;SDS011;5008;50.656;7.188;2023-04-07T16:34:57;11.90;;;10.70;;
9938;SDS011;5008;50.656;7.188;2023-04-07T16:37:25;13.10;;;10.03;;
9938;SDS011;5008;50.656;7.188;2023-04-07T16:39:54;12.27;;;9.40;;
9938;SDS011;5008;50.656;7.188;2023-04-07T16:42:24;11.53;;;10.33;;
9938;SDS011;5008;50.656;7.188;2023-04-07T16:44:52;11.70;;;10.20;;
9938;SDS011;5008;50.656;7.188;2023-04-07T16:47:20;12.93;;;10.63;;
9938;SDS011;5008;50.656;7.188;2023-04-07T16:49:47;11.07;;;9.80;;
9938;SDS011;5008;50.656;7.188;2023-04-07T16:52:14;13.27;;;10.57;;
9938;SDS011;5008;50.656;7.188;2023-04-07T16:54:42;13.07;;;10.13;;
9938;SDS011;5008;50.656;7.188;2023-04-07T16:57:09;12.07;;;10.07;;
9938;SDS011;5008;50.656;7.188;2023-04-07T16:59:36;11.47;;;9.57;;
9938;SDS011;5008;50.656;7.188;2023-04-07T17:02:06;11.37;;;9.60;;
9938;SDS011;5008;50.656;7.188;2023-04-07T17:04:42;13.67;;;9.80;;
9938;SDS011;5008;50.656;7.188;2023-04-07T17:07:09;15.27;;;9.93;;
9938;SDS011;5008;50.656;7.188;2023-04-07T17:09:37;12.13;;;10.60;;
9938;SDS011;5008;50.656;7.188;2023-04-07T17:12:05;11.30;;;10.07;;
9938;SDS011;5008;50.656;7.188;2023-04-07T17:14:32;12.70;;;10.97;;
9938;SDS011;5008;50.656;7.188;2023-04-07T17:16:59;12.20;;;10.13;;
9938;SDS011;5008;50.656;7.188;2023-04-07T17:19:26;11.80;;;10.57;;
9938;SDS011;5008;50.656;7.188;2023-04-07T17:21:53;11.57;;;10.13;;
9938;SDS011;5008;50.656;7.188;2023-04-07T17:24:20;11.90;;;9.10;;
9938;SDS011;5008;50.656;7.188;2023-04-07T17:26:49;15.27;;;10.90;;
9938;SDS011;5008;50.656;7.188;2023-04-07T17:29:17;11.23;;;10.00;;
9938;SDS011;5008;50.656;7.188;2023-04-07T17:31:48;12.03;;;10.23;;
9938;SDS011;5008;50.656;7.188;2023-04-07T17:34:15;13.57;;;10.90;;
9938;SDS011;5008;50.656;7.188;2023-04-07T17:36:41;11.33;;;10.13;;
9938;SDS011;5008;50.656;7.188;2023-04-07T17:39:09;12.63;;;11.30;;
9938;SDS011;5008;50.656;7.188;2023-04-07T17:41:46;13.60;;;11.80;;
9938;SDS011;5008;50.656;7.188;2023-04-07T17:44:28;15.00;;;12.27;;
9938;SDS011;5008;50.656;7.188;2023-04-07T17:47:02;12.07;;;10.07;;
9938;SDS011;5008;50.656;7.188;2023-04-07T17:49:29;11.27;;;10.10;;
9938;SDS011;5008;50.656;7.188;2023-04-07T17:51:56;13.17;;;10.93;;
9938;SDS011;5008;50.656;7.188;2023-04-07T17:54:30;11.63;;;10.50;;
9938;SDS011;5008;50.656;7.188;2023-04-07T17:56:58;13.03;;;10.70;;
9938;SDS011;5008;50.656;7.188;2023-04-07T17:59:25;13.07;;;10.77;;
9938;SDS011;5008;50.656;7.188;2023-04-07T18:01:53;13.40;;;11.43;;
9938;SDS011;5008;50.656;7.188;2023-04-07T18:04:20;12.30;;;10.77;;
9938;SDS011;5008;50.656;7.188;2023-04-07T18:06:46;13.13;;;10.97;;
9938;SDS011;5008;50.656;7.188;2023-04-07T18:09:14;10.70;;;9.60;;
9938;SDS011;5008;50.656;7.188;2023-04-07T18:11:40;12.13;;;10.43;;
9938;SDS011;5008;50.656;7.188;2023-04-07T18:14:07;12.50;;;9.63;;
9938;SDS011;5008;50.656;7.188;2023-04-07T18:16:34;12.20;;;10.90;;
9938;SDS011;5008;50.656;7.188;2023-04-07T18:19:02;11.90;;;10.20;;
9938;SDS011;5008;50.656;7.188;2023-04-07T18:21:29;12.60;;;10.93;;
9938;SDS011;5008;50.656;7.188;2023-04-07T18:23:55;13.60;;;11.00;;
9938;SDS011;5008;50.656;7.188;2023-04-07T18:26:22;13.57;;;10.90;;
9938;SDS011;5008;50.656;7.188;2023-04-07T18:28:49;13.93;;;10.93;;
9938;SDS011;5008;50.656;7.188;2023-04-07T18:31:16;12.23;;;10.83;;
9938;SDS011;5008;50.656;7.188;2023-04-07T18:33:44;13.47;;;10.63;;
9938;SDS011;5008;50.656;7.188;2023-04-07T18:36:12;15.00;;;12.00;;
9938;SDS011;5008;50.656;7.188;2023-04-07T18:38:39;11.00;;;9.80;;
9938;SDS011;5008;50.656;7.188;2023-04-07T18:41:06;12.27;;;10.53;;
9938;SDS011;5008;50.656;7.188;2023-04-07T18:43:33;11.20;;;10.00;;
9938;SDS011;5008;50.656;7.188;2023-04-07T18:46:00;13.83;;;11.00;;
9938;SDS011;5008;50.656;7.188;2023-04-07T18:48:26;11.97;;;10.77;;
9938;SDS011;5008;50.656;7.188;2023-04-07T18:50:53;14.70;;;10.90;;
9938;SDS011;5008;50.656;7.188;2023-04-07T18:53:22;13.67;;;10.83;;
9938;SDS011;5008;50.656;7.188;2023-04-07T18:55:50;12.33;;;11.03;;
9938;SDS011;5008;50.656;7.188;2023-04-07T18:58:17;13.33;;;10.83;;
9938;SDS011;5008;50.656;7.188;2023-04-07T19:00:45;13.03;;;10.77;;
9938;SDS011;5008;50.656;7.188;2023-04-07T19:03:13;13.53;;;10.47;;
9938;SDS011;5008;50.656;7.188;2023-04-07T19:05:40;14.07;;;10.93;;
9938;SDS011;5008;50.656;7.188;2023-04-07T19:08:07;12.70;;;10.67;;
9938;SDS011;5008;50.656;7.188;2023-04-07T19:10:35;12.13;;;10.40;;
9938;SDS011;5008;50.656;7.188;2023-04-07T19:13:02;14.63;;;10.93;;
9938;SDS011;5008;50.656;7.188;2023-04-07T19:15:30;14.33;;;10.90;;
9938;SDS011;5008;50.656;7.188;2023-04-07T19:18:00;13.87;;;10.87;;
9938;SDS011;5008;50.656;7.188;2023-04-07T19:20:27;13.57;;;10.33;;
9938;SDS011;5008;50.656;7.188;2023-04-07T19:22:54;12.03;;;10.33;;